Time;durP1;ratioP1;P1;durP2;ratioP2;P2;SDS_P1;SDS_P2;PMS_P1;PMS_P2;Temp;Humidity;BMP_temperature;BMP_pressure;BME280_temperature;BME280_humidity;BME280_pressure;Samples;Min_cycle;Max_cycle;Signal;HPM_P1;HPM_P2
2023/02/05 07:51:03;;;;;;;9.60;6.50;;;-2.00;99.90;;;;;;5132731;27;20623;-77
2023/02/05 07:53:29;;;;;;;10.90;7.13;;;-1.90;99.90;;;;;;5131766;28;20428;-77
2023/02/05 07:55:55;;;;;;;15.53;8.53;;;;;;;;;;5131323;28;20190;-77
2023/02/05 07:58:21;;;;;;;11.23;7.67;;;-1.70;99.90;;;;;;5130926;28;20266;-80
2023/02/05 08:00:47;;;;;;;16.43;7.97;;;-1.60;99.90;;;;;;5131344;28;20452;-78
2023/02/05 08:04:23;;;;;;;10.20;6.87;;;;;;;;;;5136870;27;20287;-78
2023/02/05 08:08:17;;;;;;;9.83;7.03;;;-1.10;99.90;;;;;;5132964;27;20267;-77
2023/02/05 08:10:43;;;;;;;10.97;7.83;;;;;;;;;;5132281;28;20417;-78
2023/02/05 08:13:09;;;;;;;12.53;8.23;;;-0.70;99.90;;;;;;5132254;28;20195;-78
2023/02/05 08:15:37;;;;;;;15.60;7.33;;;;;;;;;;5132442;28;20178;-78
2023/02/05 08:18:03;;;;;;;12.20;6.87;;;;;;;;;;5133927;27;20224;-78
2023/02/05 08:20:29;;;;;;;12.00;7.80;;;;;;;;;;5132212;28;20409;-78
2023/02/05 08:22:55;;;;;;;18.20;8.80;;;;;;;;;;5132118;28;20428;-78
2023/02/05 08:25:21;;;;;;;13.80;8.37;;;;;;;;;;5132006;28;20522;-78
2023/02/05 08:27:48;;;;;;;14.57;8.00;;;;;;;;;;5133806;28;20773;-78
2023/02/05 08:30:16;;;;;;;10.10;7.23;;;-0.40;99.90;;;;;;5132804;27;20171;-78
2023/02/05 08:32:45;;;;;;;9.43;7.13;;;-0.20;99.90;;;;;;5131586;28;20201;-78
2023/02/05 08:35:11;;;;;;;11.17;8.40;;;;;;;;;;5131773;28;20175;-79
2023/02/05 08:37:37;;;;;;;11.87;6.80;;;-0.10;99.90;;;;;;5133053;28;20417;-78
2023/02/05 08:40:02;;;;;;;10.67;7.23;;;0.00;99.90;;;;;;5132770;27;20416;-78
2023/02/05 08:42:28;;;;;;;9.83;6.70;;;0.00;99.90;;;;;;5133160;27;20199;-78
2023/02/05 08:44:57;;;;;;;10.30;7.57;;;0.00;99.90;;;;;;5132505;27;20175;-78
2023/02/05 08:47:23;;;;;;;10.70;6.70;;;1.00;99.90;;;;;;5132963;27;20193;-78
2023/02/05 08:49:49;;;;;;;8.13;6.43;;;1.00;99.90;;;;;;5131162;28;20232;-78
2023/02/05 08:52:15;;;;;;;9.20;6.37;;;2.30;99.90;;;;;;5132016;27;20563;-78
2023/02/05 08:54:41;;;;;;;8.73;7.03;;;2.30;99.90;;;;;;5133306;27;20734;-79
2023/02/05 08:57:07;;;;;;;11.97;6.13;;;2.80;99.90;;;;;;5135693;28;20180;-80
2023/02/05 08:59:34;;;;;;;9.73;6.17;;;3.00;99.90;;;;;;5138734;27;20186;-79
2023/02/05 09:02:00;;;;;;;10.07;5.93;;;2.60;99.90;;;;;;5135415;27;20172;-79
2023/02/05 09:04:25;;;;;;;7.43;5.97;;;2.50;99.90;;;;;;5135773;28;20204;-79
2023/02/05 09:06:51;;;;;;;8.43;6.10;;;2.10;99.90;;;;;;5138293;27;20715;-80
2023/02/05 09:09:18;;;;;;;10.13;6.87;;;1.70;99.90;;;;;;5136241;27;20204;-79
2023/02/05 09:11:45;;;;;;;10.63;6.30;;;1.30;99.90;;;;;;5135251;28;20188;-79
2023/02/05 09:14:12;;;;;;;9.17;6.07;;;1.30;99.90;;;;;;5136594;27;20682;-78
2023/02/05 09:16:38;;;;;;;9.77;6.00;;;1.30;99.90;;;;;;5137612;27;20172;-80
2023/02/05 09:19:04;;;;;;;7.93;6.13;;;1.50;99.90;;;;;;5127178;27;20169;-80
2023/02/05 09:21:30;;;;;;;8.80;6.07;;;2.20;99.90;;;;;;5122085;28;20536;-79
2023/02/05 09:23:56;;;;;;;6.70;5.43;;;2.70;99.90;;;;;;5120308;28;20601;-79
2023/02/05 09:26:22;;;;;;;9.17;5.67;;;2.70;99.90;;;;;;5119853;28;20221;-79
2023/02/05 09:28:48;;;;;;;9.03;6.10;;;2.60;99.90;;;;;;5120617;28;20174;-79
2023/02/05 09:31:17;;;;;;;8.70;6.30;;;2.20;99.90;;;;;;5120755;28;20191;-79
2023/02/05 09:33:43;;;;;;;11.37;6.20;;;2.20;99.90;;;;;;5118685;28;20233;-79
2023/02/05 09:36:21;;;;;;;10.83;6.17;;;2.10;99.90;;;;;;5118316;28;20702;-78
2023/02/05 09:38:47;;;;;;;12.70;6.33;;;2.00;99.90;;;;;;5118196;28;20227;-79
2023/02/05 09:41:19;;;;;;;9.20;5.07;;;1.80;99.90;;;;;;5117889;28;20178;-78
2023/02/05 09:43:55;;;;;;;18.57;7.10;;;1.80;99.90;;;;;;5119095;27;20204;-79
2023/02/05 09:46:29;;;;;;;12.13;7.23;;;1.80;99.90;;;;;;5119290;28;20547;-79
2023/02/05 09:49:04;;;;;;;12.43;6.73;;;1.90;99.90;;;;;;5118417;28;20199;-79
2023/02/05 09:51:37;;;;;;;15.33;7.27;;;2.10;99.90;;;;;;5118227;27;20179;-79
2023/02/05 09:54:25;;;;;;;14.70;7.77;;;2.20;99.90;;;;;;5118036;28;20573;-79
2023/02/05 09:56:54;;;;;;;19.13;8.17;;;2.40;99.90;;;;;;5116046;28;20181;-79
2023/02/05 09:59:25;;;;;;;17.33;8.47;;;2.50;99.90;;;;;;5117793;28;20193;-79
2023/02/05 10:01:59;;;;;;;20.17;7.97;;;2.70;99.90;;;;;;5115937;28;20265;-79
2023/02/05 10:04:26;;;;;;;17.67;7.40;;;2.70;99.90;;;;;;5116453;28;20200;-79
2023/02/05 10:07:18;;;;;;;23.20;8.00;;;2.70;99.90;;;;;;5116557;28;20253;-79
2023/02/05 10:10:17;;;;;;;16.87;7.03;;;2.70;99.90;;;;;;5118937;28;20164;-79
2023/02/05 10:12:55;;;;;;;22.20;8.33;;;2.70;99.90;;;;;;5118777;28;20201;-79
2023/02/05 10:15:55;;;;;;;18.47;7.67;;;2.80;99.90;;;;;;5118674;27;20166;-79
2023/02/05 10:18:34;;;;;;;14.40;5.80;;;3.20;99.90;;;;;;5118242;28;20163;-79
2023/02/05 10:21:30;;;;;;;13.63;6.93;;;3.60;99.90;;;;;;5120374;28;20174;-80
2023/02/05 10:24:23;;;;;;;15.07;5.83;;;4.00;99.90;;;;;;5119408;28;20319;-79
2023/02/05 10:26:50;;;;;;;10.17;4.97;;;4.40;99.90;;;;;;5119017;28;20236;-78
2023/02/05 10:29:49;;;;;;;9.83;4.77;;;4.40;99.90;;;;;;5116960;28;20269;-80
2023/02/05 10:32:17;;;;;;;6.83;3.50;;;4.40;99.90;;;;;;5117243;28;20184;-79
2023/02/05 10:35:07;;;;;;;8.20;3.70;;;3.80;99.90;;;;;;5118172;28;20174;-79
2023/02/05 10:37:50;;;;;;;10.33;3.73;;;3.40;99.90;;;;;;5118430;28;20181;-79
2023/02/05 10:40:20;;;;;;;10.37;3.90;;;3.20;99.90;;;;;;5121165;28;20713;-80
2023/02/05 10:43:28;;;;;;;7.57;3.87;;;3.30;99.90;;;;;;5124736;28;20218;-80
2023/02/05 10:45:55;;;;;;;22.07;9.23;;;3.50;99.90;;;;;;5120715;28;20257;-81
2023/02/05 10:48:39;;;;;;;18.90;8.83;;;3.50;99.90;;;;;;5121965;28;20205;-80
2023/02/05 10:51:12;;;;;;;67.83;40.10;;;3.40;99.90;;;;;;5120876;28;20606;-79
2023/02/05 10:53:38;;;;;;;83.37;43.53;;;3.30;99.90;;;;;;5120880;28;20197;-80
2023/02/05 10:56:04;;;;;;;38.33;19.07;;;3.20;99.90;;;;;;5122489;28;20180;-79
2023/02/05 10:58:39;;;;;;;15.87;9.17;;;3.20;99.90;;;;;;5121753;28;20174;-80
2023/02/05 11:01:10;;;;;;;18.87;11.03;;;3.10;99.90;;;;;;5120680;28;20181;-80
2023/02/05 11:03:36;;;;;;;16.10;6.13;;;3.10;99.90;;;;;;5119646;28;20193;-79
2023/02/05 11:06:08;;;;;;;11.37;6.73;;;3.10;99.90;;;;;;5118725;28;20173;-78
2023/02/05 11:08:36;;;;;;;15.40;6.17;;;3.00;99.90;;;;;;5123174;28;20174;-80
2023/02/05 11:11:03;;;;;;;9.17;4.67;;;3.00;99.90;;;;;;5121060;28;20176;-78
2023/02/05 11:13:30;;;;;;;8.33;4.20;;;3.10;99.90;;;;;;5121794;28;20608;-79
2023/02/05 11:16:01;;;;;;;7.17;3.73;;;3.10;99.90;;;;;;5118280;28;20206;-79
2023/02/05 11:18:38;;;;;;;10.07;4.43;;;3.10;99.90;;;;;;5118196;28;20180;-83
2023/02/05 11:21:07;;;;;;;11.67;4.03;;;3.10;99.90;;;;;;5122064;28;20165;-83
2023/02/05 11:23:38;;;;;;;9.13;5.00;;;3.00;99.90;;;;;;5121946;28;20204;-81
2023/02/05 11:38:57;;;;;;;19.63;5.83;;;2.80;99.90;;;;;;5140634;27;20273;-79
2023/02/05 11:50:28;;;;;;;10.00;4.63;;;2.90;99.90;;;;;;5143063;27;20271;-81
2023/02/05 11:58:30;;;;;;;7.37;5.30;;;3.00;99.90;;;;;;5139831;27;20272;-79
2023/02/05 12:05:52;;;;;;;8.67;4.60;;;2.90;99.90;;;;;;5139724;27;20263;-79
2023/02/05 12:12:26;;;;;;;11.67;3.00;;;2.90;99.90;;;;;;5140703;27;20283;-79
2023/02/05 12:17:40;;;;;;;9.07;4.47;;;3.00;99.90;;;;;;5140957;27;20279;-79
2023/02/05 12:23:11;;;;;;;10.43;4.03;;;3.10;99.90;;;;;;5139010;27;20280;-80
2023/02/05 12:28:35;;;;;;;9.63;3.73;;;3.10;99.90;;;;;;5138561;27;20267;-80
2023/02/05 12:36:01;;;;;;;12.33;3.83;;;3.00;99.90;;;;;;5140119;27;20271;-80
2023/02/05 12:43:17;;;;;;;14.07;4.00;;;5.30;99.90;;;;;;5135417;27;20659;-78
2023/02/05 12:52:23;;;;;;;10.30;4.70;;;2.90;99.90;;;;;;5134225;27;20271;-78
2023/02/05 13:02:25;;;;;;;8.67;3.93;;;2.80;99.90;;;;;;5132690;27;20278;-78
2023/02/05 13:15:15;;;;;;;13.90;4.57;;;2.70;99.90;;;;;;5133829;27;20278;-78
2023/02/05 13:37:07;;;;;;;11.80;4.37;;;2.70;99.90;;;;;;5132638;27;20281;-79
